sensor_id;sensor_type;location;lat;lon;timestamp;P1;durP1;ratioP1;P2;durP2;ratioP2
1925;SDS011;964;42.606;23.588;2023-01-19T00:02:13;6.43;;;1.93;;
1925;SDS011;964;42.606;23.588;2023-01-19T00:04:40;13.90;;;3.60;;
1925;SDS011;964;42.606;23.588;2023-01-19T00:07:07;14.10;;;3.40;;
1925;SDS011;964;42.606;23.588;2023-01-19T00:09:33;20.73;;;5.43;;
1925;SDS011;964;42.606;23.588;2023-01-19T00:12:02;19.73;;;4.17;;
1925;SDS011;964;42.606;23.588;2023-01-19T00:14:29;11.73;;;4.03;;
1925;SDS011;964;42.606;23.588;2023-01-19T00:16:56;13.00;;;2.17;;
1925;SDS011;964;42.606;23.588;2023-01-19T00:19:24;8.03;;;2.07;;
1925;SDS011;964;42.606;23.588;2023-01-19T00:21:50;13.00;;;4.03;;
1925;SDS011;964;42.606;23.588;2023-01-19T00:24:17;16.83;;;3.10;;
1925;SDS011;964;42.606;23.588;2023-01-19T00:26:44;5.03;;;2.00;;
1925;SDS011;964;42.606;23.588;2023-01-19T00:29:11;3.73;;;1.87;;
1925;SDS011;964;42.606;23.588;2023-01-19T00:31:39;14.07;;;3.47;;
1925;SDS011;964;42.606;23.588;2023-01-19T00:34:06;13.90;;;3.30;;
1925;SDS011;964;42.606;23.588;2023-01-19T00:36:35;12.57;;;3.03;;
1925;SDS011;964;42.606;23.588;2023-01-19T00:39:01;6.40;;;2.10;;
1925;SDS011;964;42.606;23.588;2023-01-19T00:41:28;12.33;;;4.37;;
1925;SDS011;964;42.606;23.588;2023-01-19T00:44:09;16.67;;;2.03;;
1925;SDS011;964;42.606;23.588;2023-01-19T00:46:36;10.47;;;3.30;;
1925;SDS011;964;42.606;23.588;2023-01-19T00:49:02;6.20;;;2.20;;
1925;SDS011;964;42.606;23.588;2023-01-19T00:51:29;15.47;;;2.93;;
1925;SDS011;964;42.606;23.588;2023-01-19T00:53:57;17.23;;;4.20;;
1925;SDS011;964;42.606;23.588;2023-01-19T00:56:28;27.13;;;4.63;;
1925;SDS011;964;42.606;23.588;2023-01-19T00:58:55;14.87;;;4.27;;
1925;SDS011;964;42.606;23.588;2023-01-19T01:01:22;17.90;;;5.83;;
1925;SDS011;964;42.606;23.588;2023-01-19T01:03:50;13.93;;;5.40;;
1925;SDS011;964;42.606;23.588;2023-01-19T01:06:18;14.40;;;4.03;;
1925;SDS011;964;42.606;23.588;2023-01-19T01:08:45;12.30;;;3.17;;
1925;SDS011;964;42.606;23.588;2023-01-19T01:11:14;10.17;;;4.20;;
1925;SDS011;964;42.606;23.588;2023-01-19T01:13:40;7.80;;;3.20;;
1925;SDS011;964;42.606;23.588;2023-01-19T01:16:08;11.30;;;3.43;;
1925;SDS011;964;42.606;23.588;2023-01-19T01:18:34;10.07;;;1.70;;
1925;SDS011;964;42.606;23.588;2023-01-19T01:21:01;12.97;;;2.23;;
1925;SDS011;964;42.606;23.588;2023-01-19T01:23:29;11.13;;;2.80;;
1925;SDS011;964;42.606;23.588;2023-01-19T01:25:55;15.20;;;2.20;;
1925;SDS011;964;42.606;23.588;2023-01-19T01:28:24;11.93;;;1.80;;
1925;SDS011;964;42.606;23.588;2023-01-19T01:30:51;9.83;;;2.27;;
1925;SDS011;964;42.606;23.588;2023-01-19T01:33:19;6.83;;;1.93;;
1925;SDS011;964;42.606;23.588;2023-01-19T01:35:45;9.87;;;2.10;;
1925;SDS011;964;42.606;23.588;2023-01-19T01:38:13;8.97;;;2.33;;
1925;SDS011;964;42.606;23.588;2023-01-19T01:40:41;8.40;;;1.70;;
1925;SDS011;964;42.606;23.588;2023-01-19T01:43:08;13.33;;;2.43;;
1925;SDS011;964;42.606;23.588;2023-01-19T01:45:39;13.47;;;2.70;;
1925;SDS011;964;42.606;23.588;2023-01-19T01:48:07;10.50;;;2.30;;
1925;SDS011;964;42.606;23.588;2023-01-19T01:50:39;14.17;;;3.17;;
1925;SDS011;964;42.606;23.588;2023-01-19T01:53:31;15.83;;;2.70;;
1925;SDS011;964;42.606;23.588;2023-01-19T01:55:59;12.00;;;3.17;;
1925;SDS011;964;42.606;23.588;2023-01-19T01:58:30;11.47;;;3.23;;
1925;SDS011;964;42.606;23.588;2023-01-19T02:01:00;8.90;;;3.13;;
1925;SDS011;964;42.606;23.588;2023-01-19T02:03:44;4.77;;;2.30;;
1925;SDS011;964;42.606;23.588;2023-01-19T02:06:11;17.13;;;4.67;;
1925;SDS011;964;42.606;23.588;2023-01-19T02:08:40;10.27;;;3.30;;
1925;SDS011;964;42.606;23.588;2023-01-19T02:11:29;12.13;;;2.90;;
1925;SDS011;964;42.606;23.588;2023-01-19T02:14:15;9.37;;;2.30;;
1925;SDS011;964;42.606;23.588;2023-01-19T02:16:44;8.20;;;2.43;;
1925;SDS011;964;42.606;23.588;2023-01-19T02:19:12;11.83;;;2.70;;
1925;SDS011;964;42.606;23.588;2023-01-19T02:21:44;13.70;;;3.33;;
1925;SDS011;964;42.606;23.588;2023-01-19T02:24:19;16.60;;;3.10;;
1925;SDS011;964;42.606;23.588;2023-01-19T02:26:46;10.77;;;2.63;;
1925;SDS011;964;42.606;23.588;2023-01-19T02:29:15;13.10;;;2.57;;
1925;SDS011;964;42.606;23.588;2023-01-19T02:31:43;8.87;;;2.10;;
1925;SDS011;964;42.606;23.588;2023-01-19T02:34:12;9.30;;;3.27;;
1925;SDS011;964;42.606;23.588;2023-01-19T02:36:41;5.23;;;1.57;;
1925;SDS011;964;42.606;23.588;2023-01-19T02:39:13;16.03;;;2.20;;
1925;SDS011;964;42.606;23.588;2023-01-19T02:41:45;8.80;;;1.67;;
1925;SDS011;964;42.606;23.588;2023-01-19T02:44:16;12.63;;;2.13;;
1925;SDS011;964;42.606;23.588;2023-01-19T02:46:45;7.63;;;2.00;;
1925;SDS011;964;42.606;23.588;2023-01-19T02:49:12;10.27;;;1.73;;
1925;SDS011;964;42.606;23.588;2023-01-19T02:51:39;10.80;;;1.80;;
1925;SDS011;964;42.606;23.588;2023-01-19T02:57:13;3.83;;;1.53;;
1925;SDS011;964;42.606;23.588;2023-01-19T02:59:53;5.20;;;1.70;;
1925;SDS011;964;42.606;23.588;2023-01-19T03:02:33;15.17;;;2.07;;
1925;SDS011;964;42.606;23.588;2023-01-19T03:05:15;16.37;;;3.00;;
1925;SDS011;964;42.606;23.588;2023-01-19T03:07:49;9.97;;;1.90;;
1925;SDS011;964;42.606;23.588;2023-01-19T03:10:25;12.83;;;2.20;;
1925;SDS011;964;42.606;23.588;2023-01-19T03:12:59;6.90;;;2.23;;
1925;SDS011;964;42.606;23.588;2023-01-19T03:15:35;15.73;;;3.63;;
1925;SDS011;964;42.606;23.588;2023-01-19T03:18:07;10.93;;;2.03;;
1925;SDS011;964;42.606;23.588;2023-01-19T03:20:36;13.30;;;2.10;;
1925;SDS011;964;42.606;23.588;2023-01-19T03:23:05;7.83;;;1.70;;
1925;SDS011;964;42.606;23.588;2023-01-19T03:25:37;9.30;;;2.10;;
1925;SDS011;964;42.606;23.588;2023-01-19T03:28:09;23.57;;;2.70;;
1925;SDS011;964;42.606;23.588;2023-01-19T03:30:39;6.47;;;1.00;;
1925;SDS011;964;42.606;23.588;2023-01-19T03:33:11;10.20;;;2.83;;
1925;SDS011;964;42.606;23.588;2023-01-19T03:35:43;19.77;;;3.70;;
1925;SDS011;964;42.606;23.588;2023-01-19T03:38:14;27.40;;;3.53;;
1925;SDS011;964;42.606;23.588;2023-01-19T03:40:44;13.40;;;1.97;;
1925;SDS011;964;42.606;23.588;2023-01-19T03:43:14;10.70;;;1.83;;
1925;SDS011;964;42.606;23.588;2023-01-19T03:45:42;11.10;;;1.93;;
1925;SDS011;964;42.606;23.588;2023-01-19T03:48:10;7.07;;;1.70;;
1925;SDS011;964;42.606;23.588;2023-01-19T03:50:38;12.20;;;1.83;;
1925;SDS011;964;42.606;23.588;2023-01-19T03:53:05;14.00;;;2.20;;
1925;SDS011;964;42.606;23.588;2023-01-19T03:55:34;11.83;;;1.93;;
1925;SDS011;964;42.606;23.588;2023-01-19T03:58:02;13.07;;;2.43;;
1925;SDS011;964;42.606;23.588;2023-01-19T04:00:40;9.43;;;2.20;;
1925;SDS011;964;42.606;23.588;2023-01-19T04:03:09;8.17;;;2.10;;
1925;SDS011;964;42.606;23.588;2023-01-19T04:05:38;11.37;;;2.00;;
1925;SDS011;964;42.606;23.588;2023-01-19T04:08:05;17.53;;;2.30;;
1925;SDS011;964;42.606;23.588;2023-01-19T04:10:32;12.87;;;2.77;;
1925;SDS011;964;42.606;23.588;2023-01-19T04:12:59;12.60;;;3.80;;
1925;SDS011;964;42.606;23.588;2023-01-19T04:15:27;17.97;;;2.83;;
1925;SDS011;964;42.606;23.588;2023-01-19T04:17:57;13.57;;;2.80;;
1925;SDS011;964;42.606;23.588;2023-01-19T04:20:25;19.73;;;3.40;;
1925;SDS011;964;42.606;23.588;2023-01-19T04:22:52;12.07;;;3.30;;
1925;SDS011;964;42.606;23.588;2023-01-19T04:25:20;9.03;;;2.83;;
1925;SDS011;964;42.606;23.588;2023-01-19T04:27:47;9.63;;;3.17;;
1925;SDS011;964;42.606;23.588;2023-01-19T04:30:17;16.60;;;4.57;;
1925;SDS011;964;42.606;23.588;2023-01-19T04:32:43;27.97;;;7.07;;
1925;SDS011;964;42.606;23.588;2023-01-19T04:35:12;30.60;;;7.27;;
1925;SDS011;964;42.606;23.588;2023-01-19T04:37:38;22.27;;;6.90;;
1925;SDS011;964;42.606;23.588;2023-01-19T04:40:06;18.10;;;8.07;;
1925;SDS011;964;42.606;23.588;2023-01-19T04:42:33;18.83;;;8.10;;
1925;SDS011;964;42.606;23.588;2023-01-19T04:45:00;32.23;;;14.60;;
1925;SDS011;964;42.606;23.588;2023-01-19T04:47:27;22.33;;;13.60;;
1925;SDS011;964;42.606;23.588;2023-01-19T04:49:53;38.60;;;18.30;;
1925;SDS011;964;42.606;23.588;2023-01-19T04:52:21;39.47;;;15.60;;
1925;SDS011;964;42.606;23.588;2023-01-19T04:54:48;51.60;;;21.00;;
1925;SDS011;964;42.606;23.588;2023-01-19T04:57:15;45.57;;;23.57;;
1925;SDS011;964;42.606;23.588;2023-01-19T04:59:42;33.97;;;9.10;;
1925;SDS011;964;42.606;23.588;2023-01-19T05:02:08;20.50;;;8.90;;
1925;SDS011;964;42.606;23.588;2023-01-19T05:04:35;23.13;;;8.67;;
1925;SDS011;964;42.606;23.588;2023-01-19T05:07:02;23.57;;;7.43;;
1925;SDS011;964;42.606;23.588;2023-01-19T05:09:30;16.40;;;5.30;;
1925;SDS011;964;42.606;23.588;2023-01-19T05:11:57;23.10;;;4.83;;
1925;SDS011;964;42.606;23.588;2023-01-19T05:14:23;18.00;;;4.67;;
1925;SDS011;964;42.606;23.588;2023-01-19T05:16:50;18.30;;;3.50;;
1925;SDS011;964;42.606;23.588;2023-01-19T05:19:17;17.53;;;4.50;;
1925;SDS011;964;42.606;23.588;2023-01-19T05:21:43;21.70;;;7.57;;
1925;SDS011;964;42.606;23.588;2023-01-19T05:24:10;21.13;;;6.40;;
1925;SDS011;964;42.606;23.588;2023-01-19T05:26:38;26.03;;;7.43;;
1925;SDS011;964;42.606;23.588;2023-01-19T05:29:05;22.70;;;5.53;;
1925;SDS011;964;42.606;23.588;2023-01-19T05:31:32;31.73;;;9.83;;
1925;SDS011;964;42.606;23.588;2023-01-19T05:33:59;25.60;;;7.63;;
1925;SDS011;964;42.606;23.588;2023-01-19T05:36:25;20.40;;;6.40;;
1925;SDS011;964;42.606;23.588;2023-01-19T05:38:52;18.70;;;5.90;;
1925;SDS011;964;42.606;23.588;2023-01-19T05:41:19;20.83;;;6.53;;
1925;SDS011;964;42.606;23.588;2023-01-19T05:43:47;21.17;;;6.23;;
1925;SDS011;964;42.606;23.588;2023-01-19T05:46:14;17.43;;;4.87;;
1925;SDS011;964;42.606;23.588;2023-01-19T05:48:40;12.50;;;3.47;;
1925;SDS011;964;42.606;23.588;2023-01-19T05:51:07;16.77;;;3.40;;
1925;SDS011;964;42.606;23.588;2023-01-19T05:53:34;22.60;;;4.50;;
1925;SDS011;964;42.606;23.588;2023-01-19T05:56:00;16.93;;;5.07;;
1925;SDS011;964;42.606;23.588;2023-01-19T05:58:28;22.27;;;3.93;;
1925;SDS011;964;42.606;23.588;2023-01-19T06:00:57;21.43;;;7.93;;
1925;SDS011;964;42.606;23.588;2023-01-19T06:03:27;19.13;;;5.10;;
1925;SDS011;964;42.606;23.588;2023-01-19T06:05:55;23.13;;;6.07;;
1925;SDS011;964;42.606;23.588;2023-01-19T06:08:22;29.20;;;9.83;;
1925;SDS011;964;42.606;23.588;2023-01-19T06:10:49;31.63;;;7.70;;
1925;SDS011;964;42.606;23.588;2023-01-19T06:13:16;25.30;;;9.63;;
1925;SDS011;964;42.606;23.588;2023-01-19T06:15:42;26.30;;;8.60;;
1925;SDS011;964;42.606;23.588;2023-01-19T06:18:11;28.33;;;7.37;;
1925;SDS011;964;42.606;23.588;2023-01-19T06:20:39;23.97;;;7.33;;
1925;SDS011;964;42.606;23.588;2023-01-19T06:23:05;21.33;;;7.33;;
1925;SDS011;964;42.606;23.588;2023-01-19T06:25:32;29.23;;;8.73;;
1925;SDS011;964;42.606;23.588;2023-01-19T06:27:59;18.43;;;7.13;;
1925;SDS011;964;42.606;23.588;2023-01-19T06:30:26;38.40;;;8.83;;
1925;SDS011;964;42.606;23.588;2023-01-19T06:32:53;37.60;;;10.50;;
1925;SDS011;964;42.606;23.588;2023-01-19T06:35:21;35.50;;;13.37;;
1925;SDS011;964;42.606;23.588;2023-01-19T06:37:47;47.27;;;14.60;;
1925;SDS011;964;42.606;23.588;2023-01-19T06:40:15;47.97;;;15.90;;
1925;SDS011;964;42.606;23.588;2023-01-19T06:42:42;43.63;;;14.93;;
1925;SDS011;964;42.606;23.588;2023-01-19T06:45:09;48.80;;;15.30;;
1925;SDS011;964;42.606;23.588;2023-01-19T06:47:39;42.40;;;15.70;;
1925;SDS011;964;42.606;23.588;2023-01-19T06:50:06;25.33;;;10.10;;
1925;SDS011;964;42.606;23.588;2023-01-19T06:52:34;33.30;;;10.03;;
1925;SDS011;964;42.606;23.588;2023-01-19T06:55:06;36.60;;;11.90;;
1925;SDS011;964;42.606;23.588;2023-01-19T06:57:34;32.17;;;12.13;;
1925;SDS011;964;42.606;23.588;2023-01-19T07:00:02;27.43;;;10.87;;
1925;SDS011;964;42.606;23.588;2023-01-19T07:02:32;23.20;;;10.30;;
1925;SDS011;964;42.606;23.588;2023-01-19T07:04:58;27.30;;;9.93;;
1925;SDS011;964;42.606;23.588;2023-01-19T07:07:25;30.93;;;11.07;;
1925;SDS011;964;42.606;23.588;2023-01-19T07:09:53;23.97;;;7.70;;
1925;SDS011;964;42.606;23.588;2023-01-19T07:12:20;19.23;;;7.40;;
1925;SDS011;964;42.606;23.588;2023-01-19T07:14:47;38.97;;;19.00;;
1925;SDS011;964;42.606;23.588;2023-01-19T07:17:23;20.50;;;5.53;;
1925;SDS011;964;42.606;23.588;2023-01-19T07:19:49;15.83;;;5.37;;
1925;SDS011;964;42.606;23.588;2023-01-19T07:22:16;17.80;;;3.77;;
1925;SDS011;964;42.606;23.588;2023-01-19T07:24:43;16.00;;;5.40;;
1925;SDS011;964;42.606;23.588;2023-01-19T07:27:11;22.03;;;5.03;;
1925;SDS011;964;42.606;23.588;2023-01-19T07:29:37;18.13;;;4.90;;
1925;SDS011;964;42.606;23.588;2023-01-19T07:32:04;24.20;;;5.47;;
1925;SDS011;964;42.606;23.588;2023-01-19T07:34:31;15.50;;;4.23;;
1925;SDS011;964;42.606;23.588;2023-01-19T07:36:58;15.80;;;4.80;;
1925;SDS011;964;42.606;23.588;2023-01-19T07:39:25;16.47;;;6.83;;
1925;SDS011;964;42.606;23.588;2023-01-19T07:41:52;14.77;;;6.10;;
1925;SDS011;964;42.606;23.588;2023-01-19T07:44:21;24.63;;;6.23;;
1925;SDS011;964;42.606;23.588;2023-01-19T07:46:48;22.00;;;7.17;;
1925;SDS011;964;42.606;23.588;2023-01-19T07:49:15;27.87;;;7.57;;
1925;SDS011;964;42.606;23.588;2023-01-19T07:51:41;23.13;;;8.50;;
1925;SDS011;964;42.606;23.588;2023-01-19T07:54:09;21.47;;;6.27;;
1925;SDS011;964;42.606;23.588;2023-01-19T07:56:36;20.33;;;8.80;;
1925;SDS011;964;42.606;23.588;2023-01-19T07:59:02;32.57;;;12.23;;
1925;SDS011;964;42.606;23.588;2023-01-19T08:01:33;24.37;;;8.13;;
1925;SDS011;964;42.606;23.588;2023-01-19T08:03:59;23.13;;;7.90;;
1925;SDS011;964;42.606;23.588;2023-01-19T08:06:27;17.30;;;5.70;;
1925;SDS011;964;42.606;23.588;2023-01-19T08:08:58;10.90;;;3.10;;
1925;SDS011;964;42.606;23.588;2023-01-19T08:11:24;15.17;;;3.83;;
1925;SDS011;964;42.606;23.588;2023-01-19T08:13:51;10.93;;;2.93;;
1925;SDS011;964;42.606;23.588;2023-01-19T08:16:18;13.30;;;3.20;;
1925;SDS011;964;42.606;23.588;2023-01-19T08:18:46;15.53;;;4.27;;
1925;SDS011;964;42.606;23.588;2023-01-19T08:21:13;8.67;;;3.43;;
1925;SDS011;964;42.606;23.588;2023-01-19T08:23:40;12.83;;;3.50;;
1925;SDS011;964;42.606;23.588;2023-01-19T08:26:16;19.00;;;3.90;;
1925;SDS011;964;42.606;23.588;2023-01-19T08:28:44;21.40;;;3.07;;
1925;SDS011;964;42.606;23.588;2023-01-19T08:31:11;9.87;;;3.43;;
1925;SDS011;964;42.606;23.588;2023-01-19T08:33:37;20.87;;;3.27;;
1925;SDS011;964;42.606;23.588;2023-01-19T08:36:07;19.50;;;3.57;;
1925;SDS011;964;42.606;23.588;2023-01-19T08:38:34;23.80;;;3.70;;
1925;SDS011;964;42.606;23.588;2023-01-19T08:41:03;20.60;;;3.20;;
1925;SDS011;964;42.606;23.588;2023-01-19T08:43:30;14.83;;;3.20;;
1925;SDS011;964;42.606;23.588;2023-01-19T08:45:57;19.03;;;3.50;;
1925;SDS011;964;42.606;23.588;2023-01-19T08:48:23;15.50;;;5.87;;
1925;SDS011;964;42.606;23.588;2023-01-19T08:50:50;13.07;;;2.73;;
1925;SDS011;964;42.606;23.588;2023-01-19T08:53:19;13.93;;;3.20;;
1925;SDS011;964;42.606;23.588;2023-01-19T08:55:47;14.30;;;3.80;;
1925;SDS011;964;42.606;23.588;2023-01-19T08:58:14;17.20;;;3.30;;
1925;SDS011;964;42.606;23.588;2023-01-19T09:00:42;9.50;;;3.67;;
1925;SDS011;964;42.606;23.588;2023-01-19T09:03:10;17.60;;;3.33;;
1925;SDS011;964;42.606;23.588;2023-01-19T09:05:38;10.47;;;2.50;;
1925;SDS011;964;42.606;23.588;2023-01-19T09:08:06;12.67;;;3.50;;
1925;SDS011;964;42.606;23.588;2023-01-19T09:10:35;14.03;;;3.60;;
1925;SDS011;964;42.606;23.588;2023-01-19T09:13:03;10.90;;;3.03;;
1925;SDS011;964;42.606;23.588;2023-01-19T09:15:32;4.00;;;2.00;;
1925;SDS011;964;42.606;23.588;2023-01-19T09:18:02;20.43;;;4.00;;
1925;SDS011;964;42.606;23.588;2023-01-19T09:20:29;12.03;;;3.60;;
1925;SDS011;964;42.606;23.588;2023-01-19T09:22:57;16.87;;;4.00;;
1925;SDS011;964;42.606;23.588;2023-01-19T09:25:24;12.53;;;3.00;;
1925;SDS011;964;42.606;23.588;2023-01-19T09:27:52;8.70;;;1.83;;
1925;SDS011;964;42.606;23.588;2023-01-19T09:30:20;14.13;;;3.00;;
1925;SDS011;964;42.606;23.588;2023-01-19T09:32:47;9.20;;;2.47;;
1925;SDS011;964;42.606;23.588;2023-01-19T09:35:13;12.27;;;3.33;;
1925;SDS011;964;42.606;23.588;2023-01-19T09:37:44;18.37;;;4.43;;
1925;SDS011;964;42.606;23.588;2023-01-19T09:40:12;8.57;;;2.10;;
1925;SDS011;964;42.606;23.588;2023-01-19T09:42:40;9.30;;;2.10;;
1925;SDS011;964;42.606;23.588;2023-01-19T09:45:12;17.70;;;3.27;;
1925;SDS011;964;42.606;23.588;2023-01-19T09:47:44;10.60;;;2.63;;
1925;SDS011;964;42.606;23.588;2023-01-19T09:50:15;8.57;;;2.23;;
1925;SDS011;964;42.606;23.588;2023-01-19T09:52:46;6.13;;;2.10;;
1925;SDS011;964;42.606;23.588;2023-01-19T09:55:22;10.07;;;2.17;;
1925;SDS011;964;42.606;23.588;2023-01-19T09:57:51;11.13;;;2.60;;
1925;SDS011;964;42.606;23.588;2023-01-19T10:00:20;10.13;;;1.70;;
1925;SDS011;964;42.606;23.588;2023-01-19T10:02:49;7.87;;;2.10;;
1925;SDS011;964;42.606;23.588;2023-01-19T10:05:24;15.20;;;2.50;;
1925;SDS011;964;42.606;23.588;2023-01-19T10:08:02;9.50;;;2.03;;
1925;SDS011;964;42.606;23.588;2023-01-19T10:10:38;7.27;;;2.40;;
1925;SDS011;964;42.606;23.588;2023-01-19T10:13:20;9.10;;;1.80;;
1925;SDS011;964;42.606;23.588;2023-01-19T10:16:06;14.40;;;2.80;;
1925;SDS011;964;42.606;23.588;2023-01-19T10:18:40;3.33;;;1.13;;
1925;SDS011;964;42.606;23.588;2023-01-19T10:21:13;12.10;;;3.60;;
1925;SDS011;964;42.606;23.588;2023-01-19T10:23:43;12.23;;;3.13;;
1925;SDS011;964;42.606;23.588;2023-01-19T10:26:14;11.67;;;2.80;;
1925;SDS011;964;42.606;23.588;2023-01-19T10:28:43;13.03;;;1.70;;
1925;SDS011;964;42.606;23.588;2023-01-19T10:31:13;10.23;;;2.70;;
1925;SDS011;964;42.606;23.588;2023-01-19T10:33:43;9.40;;;2.23;;
1925;SDS011;964;42.606;23.588;2023-01-19T10:36:17;8.00;;;2.37;;
1925;SDS011;964;42.606;23.588;2023-01-19T10:38:45;10.00;;;2.07;;
1925;SDS011;964;42.606;23.588;2023-01-19T10:41:14;12.13;;;2.10;;
1925;SDS011;964;42.606;23.588;2023-01-19T10:43:44;9.50;;;2.03;;
1925;SDS011;964;42.606;23.588;2023-01-19T10:46:21;5.07;;;2.10;;
1925;SDS011;964;42.606;23.588;2023-01-19T10:48:54;8.10;;;2.90;;
1925;SDS011;964;42.606;23.588;2023-01-19T10:51:43;6.40;;;1.63;;
1925;SDS011;964;42.606;23.588;2023-01-19T10:54:24;5.23;;;2.40;;
1925;SDS011;964;42.606;23.588;2023-01-19T10:56:53;10.10;;;2.67;;
1925;SDS011;964;42.606;23.588;2023-01-19T10:59:29;15.73;;;3.50;;
1925;SDS011;964;42.606;23.588;2023-01-19T11:02:02;6.83;;;2.47;;
1925;SDS011;964;42.606;23.588;2023-01-19T11:04:40;8.93;;;2.63;;
1925;SDS011;964;42.606;23.588;2023-01-19T11:07:13;12.27;;;3.50;;
1925;SDS011;964;42.606;23.588;2023-01-19T11:09:43;3.93;;;1.60;;
1925;SDS011;964;42.606;23.588;2023-01-19T11:12:19;9.63;;;1.60;;
1925;SDS011;964;42.606;23.588;2023-01-19T11:14:47;8.70;;;2.53;;
1925;SDS011;964;42.606;23.588;2023-01-19T11:17:18;7.10;;;1.70;;
1925;SDS011;964;42.606;23.588;2023-01-19T11:19:51;8.07;;;2.33;;
1925;SDS011;964;42.606;23.588;2023-01-19T11:22:20;10.97;;;2.30;;
1925;SDS011;964;42.606;23.588;2023-01-19T11:24:55;9.63;;;2.10;;
1925;SDS011;964;42.606;23.588;2023-01-19T11:27:23;7.70;;;1.40;;
1925;SDS011;964;42.606;23.588;2023-01-19T11:29:52;12.00;;;2.30;;
1925;SDS011;964;42.606;23.588;2023-01-19T11:32:27;16.67;;;3.40;;
1925;SDS011;964;42.606;23.588;2023-01-19T11:34:54;15.47;;;2.57;;
1925;SDS011;964;42.606;23.588;2023-01-19T11:37:30;13.83;;;2.50;;
1925;SDS011;964;42.606;23.588;2023-01-19T11:39:59;14.73;;;2.97;;
1925;SDS011;964;42.606;23.588;2023-01-19T11:42:29;12.13;;;3.23;;
1925;SDS011;964;42.606;23.588;2023-01-19T11:44:59;9.87;;;3.57;;
1925;SDS011;964;42.606;23.588;2023-01-19T11:47:32;15.23;;;2.60;;
1925;SDS011;964;42.606;23.588;2023-01-19T11:50:05;10.97;;;2.53;;
1925;SDS011;964;42.606;23.588;2023-01-19T11:52:38;10.13;;;2.40;;
1925;SDS011;964;42.606;23.588;2023-01-19T11:55:12;5.80;;;2.47;;
1925;SDS011;964;42.606;23.588;2023-01-19T11:57:45;8.23;;;1.60;;
1925;SDS011;964;42.606;23.588;2023-01-19T12:00:18;9.00;;;2.80;;
1925;SDS011;964;42.606;23.588;2023-01-19T12:02:53;9.77;;;2.20;;
1925;SDS011;964;42.606;23.588;2023-01-19T12:05:23;6.40;;;2.33;;
1925;SDS011;964;42.606;23.588;2023-01-19T12:07:58;11.63;;;2.70;;
1925;SDS011;964;42.606;23.588;2023-01-19T12:10:29;14.20;;;1.93;;
1925;SDS011;964;42.606;23.588;2023-01-19T12:12:59;5.00;;;1.80;;
1925;SDS011;964;42.606;23.588;2023-01-19T12:15:29;4.57;;;2.13;;
1925;SDS011;964;42.606;23.588;2023-01-19T12:18:01;12.53;;;1.80;;
1925;SDS011;964;42.606;23.588;2023-01-19T12:20:32;5.40;;;1.97;;
1925;SDS011;964;42.606;23.588;2023-01-19T12:23:06;9.80;;;2.77;;
1925;SDS011;964;42.606;23.588;2023-01-19T12:25:46;4.60;;;1.40;;
1925;SDS011;964;42.606;23.588;2023-01-19T12:28:21;7.93;;;1.80;;
1925;SDS011;964;42.606;23.588;2023-01-19T12:30:54;7.23;;;1.80;;
1925;SDS011;964;42.606;23.588;2023-01-19T12:33:30;5.70;;;2.10;;
1925;SDS011;964;42.606;23.588;2023-01-19T12:36:00;6.57;;;3.10;;
1925;SDS011;964;42.606;23.588;2023-01-19T12:41:22;10.80;;;2.93;;
1925;SDS011;964;42.606;23.588;2023-01-19T12:46:47;8.93;;;3.33;;
1925;SDS011;964;42.606;23.588;2023-01-19T12:49:24;8.10;;;2.63;;
1925;SDS011;964;42.606;23.588;2023-01-19T12:51:54;6.80;;;2.33;;
1925;SDS011;964;42.606;23.588;2023-01-19T12:54:49;6.30;;;2.30;;
1925;SDS011;964;42.606;23.588;2023-01-19T12:57:21;6.77;;;3.20;;
1925;SDS011;964;42.606;23.588;2023-01-19T12:59:56;6.17;;;2.83;;
1925;SDS011;964;42.606;23.588;2023-01-19T13:05:14;6.50;;;1.77;;
1925;SDS011;964;42.606;23.588;2023-01-19T13:16:54;5.07;;;1.67;;
1925;SDS011;964;42.606;23.588;2023-01-19T13:19:34;6.33;;;1.80;;
1925;SDS011;964;42.606;23.588;2023-01-19T13:25:37;4.57;;;1.57;;
1925;SDS011;964;42.606;23.588;2023-01-19T13:28:08;7.07;;;2.00;;
1925;SDS011;964;42.606;23.588;2023-01-19T13:30:36;6.83;;;2.37;;
1925;SDS011;964;42.606;23.588;2023-01-19T13:33:14;7.30;;;1.60;;
1925;SDS011;964;42.606;23.588;2023-01-19T13:35:49;4.90;;;2.67;;
1925;SDS011;964;42.606;23.588;2023-01-19T13:38:19;4.40;;;1.73;;
1925;SDS011;964;42.606;23.588;2023-01-19T13:40:47;3.73;;;2.30;;
1925;SDS011;964;42.606;23.588;2023-01-19T13:43:15;6.00;;;2.53;;
1925;SDS011;964;42.606;23.588;2023-01-19T13:45:46;2.97;;;1.40;;
1925;SDS011;964;42.606;23.588;2023-01-19T13:48:15;3.77;;;2.90;;
1925;SDS011;964;42.606;23.588;2023-01-19T13:50:54;6.97;;;1.63;;
1925;SDS011;964;42.606;23.588;2023-01-19T13:53:23;4.60;;;1.97;;
1925;SDS011;964;42.606;23.588;2023-01-19T13:56:04;4.83;;;3.03;;
1925;SDS011;964;42.606;23.588;2023-01-19T13:58:32;4.40;;;1.70;;
1925;SDS011;964;42.606;23.588;2023-01-19T14:00:59;6.30;;;1.93;;
1925;SDS011;964;42.606;23.588;2023-01-19T14:03:26;6.20;;;2.70;;
1925;SDS011;964;42.606;23.588;2023-01-19T14:05:53;5.37;;;2.90;;
1925;SDS011;964;42.606;23.588;2023-01-19T14:08:20;8.17;;;3.67;;
1925;SDS011;964;42.606;23.588;2023-01-19T14:11:00;9.30;;;3.40;;
1925;SDS011;964;42.606;23.588;2023-01-19T14:13:28;12.30;;;6.17;;
1925;SDS011;964;42.606;23.588;2023-01-19T14:15:57;6.17;;;1.90;;
1925;SDS011;964;42.606;23.588;2023-01-19T14:18:26;8.47;;;4.50;;
1925;SDS011;964;42.606;23.588;2023-01-19T14:20:55;4.27;;;2.47;;
1925;SDS011;964;42.606;23.588;2023-01-19T14:23:38;9.97;;;3.87;;
1925;SDS011;964;42.606;23.588;2023-01-19T14:29:14;6.23;;;3.43;;
1925;SDS011;964;42.606;23.588;2023-01-19T14:31:43;9.03;;;3.10;;
1925;SDS011;964;42.606;23.588;2023-01-19T14:34:27;7.63;;;2.60;;
1925;SDS011;964;42.606;23.588;2023-01-19T14:36:58;4.40;;;2.20;;
1925;SDS011;964;42.606;23.588;2023-01-19T14:39:26;2.70;;;1.80;;
1925;SDS011;964;42.606;23.588;2023-01-19T14:41:56;3.67;;;2.00;;
1925;SDS011;964;42.606;23.588;2023-01-19T14:44:26;5.17;;;2.83;;
1925;SDS011;964;42.606;23.588;2023-01-19T14:46:55;4.60;;;1.87;;
1925;SDS011;964;42.606;23.588;2023-01-19T14:49:25;5.83;;;2.90;;
1925;SDS011;964;42.606;23.588;2023-01-19T14:51:56;9.20;;;2.80;;
1925;SDS011;964;42.606;23.588;2023-01-19T14:54:26;1.83;;;1.30;;
1925;SDS011;964;42.606;23.588;2023-01-19T14:56:58;1.90;;;1.50;;
1925;SDS011;964;42.606;23.588;2023-01-19T14:59:24;6.07;;;1.50;;
1925;SDS011;964;42.606;23.588;2023-01-19T15:01:51;4.60;;;1.50;;
1925;SDS011;964;42.606;23.588;2023-01-19T15:04:18;2.43;;;1.30;;
1925;SDS011;964;42.606;23.588;2023-01-19T15:06:44;3.70;;;1.57;;
1925;SDS011;964;42.606;23.588;2023-01-19T15:09:12;2.10;;;1.37;;
1925;SDS011;964;42.606;23.588;2023-01-19T15:11:40;5.43;;;1.83;;
1925;SDS011;964;42.606;23.588;2023-01-19T15:14:10;5.50;;;1.37;;
1925;SDS011;964;42.606;23.588;2023-01-19T15:16:39;3.10;;;1.90;;
1925;SDS011;964;42.606;23.588;2023-01-19T15:19:08;9.30;;;2.03;;
1925;SDS011;964;42.606;23.588;2023-01-19T15:21:39;1.63;;;1.13;;
1925;SDS011;964;42.606;23.588;2023-01-19T15:24:06;1.60;;;1.30;;
1925;SDS011;964;42.606;23.588;2023-01-19T15:26:34;3.27;;;1.57;;
1925;SDS011;964;42.606;23.588;2023-01-19T15:29:02;2.80;;;1.37;;
1925;SDS011;964;42.606;23.588;2023-01-19T15:31:36;3.10;;;1.70;;
1925;SDS011;964;42.606;23.588;2023-01-19T15:34:02;4.53;;;1.57;;
1925;SDS011;964;42.606;23.588;2023-01-19T15:36:29;1.87;;;1.20;;
1925;SDS011;964;42.606;23.588;2023-01-19T15:38:56;4.20;;;1.10;;
1925;SDS011;964;42.606;23.588;2023-01-19T15:41:24;3.27;;;2.20;;
1925;SDS011;964;42.606;23.588;2023-01-19T15:43:51;8.27;;;4.90;;
1925;SDS011;964;42.606;23.588;2023-01-19T15:46:19;3.73;;;2.83;;
1925;SDS011;964;42.606;23.588;2023-01-19T15:48:48;11.67;;;1.80;;